PWSweather.com
Personal Weather Stations
Station Observations
COONRAPIDS
Minneapolis, MN 55433

Minneapolis, MN 55433

Lat: 45.187721, Lon: -93.36828

Elevation: 898

Station Type: Davis Vantage Pro 2

Latest ConditionsUpdated 9:10:01 AM CST Friday, Feb 24, 2017
Currently Today's Max Today's Min Today's Average
Temperature 24.3°F-4.3°C 28.3°F-2.1°C 24.1°F-4.4°C 25.6°F-3.6°C
Dew Point 15.3°F-9.3°C 19.1°F-7.2°C 14.7°F-9.6°C 16.1°F-8.8°C
Winds 2.3 mph NE3.7 kmh NE 8.1 mph NE13.0 kmh NE - 4.7 mph 7.6 kmh
Wind Gusts 3.5 mph5.6 kmh 12.7 mph20.4 kmh - -
Humidity 68% 68% 65% 67%
Pressure 29.92 in1013.2 mb 29.94 in1013.9 mb 29.86 in1011.2 mb -
Hour Temp Dew Point Humidity Winds Wind Gusts Pressure Precip Precip Rate Daily Precip Total
09:10 AM 24.3°F-4.3°C 15.3°F-9.3°C 68% 2.3 mph NE3.7 kmh NE 3.5 mph5.6 kmh 29.92 in1013.2 mb - 0.00 in0.0 mm 0.00 in0.0 mm
09:00 AM 24.3°F-4.3°C 15.3°F-9.3°C 68% 3.5 mph N5.6 kmh N 5.8 mph9.3 kmh 29.92 in1013.2 mb - 0.00 in0.0 mm 0.00 in0.0 mm
08:50 AM 24.2°F-4.3°C 15.2°F-9.3°C 68% 3.5 mph NNE5.6 kmh NNE 3.5 mph5.6 kmh 29.91 in1012.9 mb - 0.00 in0.0 mm 0.00 in0.0 mm
08:40 AM 24.2°F-4.3°C 15.2°F-9.3°C 68% 5.8 mph N9.3 kmh N 8.1 mph13.0 kmh 29.91 in1012.9 mb - 0.00 in0.0 mm 0.00 in0.0 mm
08:30 AM 24.2°F-4.3°C 15.2°F-9.3°C 68% 2.3 mph N3.7 kmh N 11.5 mph18.5 kmh 29.90 in1012.5 mb - 0.00 in0.0 mm 0.00 in0.0 mm
08:20 AM 24.1°F-4.4°C 15.1°F-9.4°C 68% 1.2 mph N1.9 kmh N 6.9 mph11.1 kmh 29.89 in1012.2 mb - 0.00 in0.0 mm 0.00 in0.0 mm
08:10 AM 24.2°F-4.3°C 15.1°F-9.4°C 68% 4.6 mph NNE7.4 kmh NNE 9.2 mph14.8 kmh 29.89 in1012.2 mb - 0.00 in0.0 mm 0.00 in0.0 mm
08:00 AM 24.2°F-4.3°C 14.8°F-9.6°C 67% 4.6 mph NNE7.4 kmh NNE 6.9 mph11.1 kmh 29.89 in1012.2 mb - 0.00 in0.0 mm 0.00 in0.0 mm
07:50 AM 24.2°F-4.3°C 14.8°F-9.6°C 67% 4.6 mph NE7.4 kmh NE 5.8 mph9.3 kmh 29.89 in1012.2 mb - 0.00 in0.0 mm 0.00 in0.0 mm
07:40 AM 24.2°F-4.3°C 14.8°F-9.6°C 67% 4.6 mph NNE7.4 kmh NNE 9.2 mph14.8 kmh 29.90 in1012.5 mb - 0.00 in0.0 mm 0.00 in0.0 mm
07:30 AM 24.2°F-4.3°C 14.8°F-9.6°C 67% 4.6 mph NNE7.4 kmh NNE 9.2 mph14.8 kmh 29.90 in1012.5 mb - 0.00 in0.0 mm 0.00 in0.0 mm
07:20 AM 24.2°F-4.3°C 14.8°F-9.6°C 67% 3.5 mph N5.6 kmh N 3.5 mph5.6 kmh 29.89 in1012.2 mb - 0.00 in0.0 mm 0.00 in0.0 mm
07:10 AM 24.1°F-4.4°C 14.7°F-9.6°C 67% 3.5 mph NNE5.6 kmh NNE 6.9 mph11.1 kmh 29.88 in1011.9 mb - 0.00 in0.0 mm 0.00 in0.0 mm
07:00 AM 24.1°F-4.4°C 14.7°F-9.6°C 67% 4.6 mph NNE7.4 kmh NNE 6.9 mph11.1 kmh 29.88 in1011.9 mb - 0.00 in0.0 mm 0.00 in0.0 mm
06:50 AM 24.2°F-4.3°C 14.8°F-9.6°C 67% 4.6 mph NNE7.4 kmh NNE 6.9 mph11.1 kmh 29.88 in1011.9 mb - 0.00 in0.0 mm 0.00 in0.0 mm
06:40 AM 24.1°F-4.4°C 14.7°F-9.6°C 67% 1.2 mph N1.9 kmh N 5.8 mph9.3 kmh 29.88 in1011.9 mb - 0.00 in0.0 mm 0.00 in0.0 mm
06:30 AM 24.2°F-4.3°C 14.8°F-9.6°C 67% 4.6 mph NNE7.4 kmh NNE 8.1 mph13.0 kmh 29.86 in1011.2 mb - 0.00 in0.0 mm 0.00 in0.0 mm
06:20 AM 24.2°F-4.3°C 14.8°F-9.6°C 67% 4.6 mph NNE7.4 kmh NNE 6.9 mph11.1 kmh 29.86 in1011.2 mb - 0.00 in0.0 mm 0.00 in0.0 mm
06:10 AM 24.3°F-4.3°C 15.3°F-9.3°C 68% 3.5 mph NNE5.6 kmh NNE 3.5 mph5.6 kmh 29.86 in1011.2 mb - 0.00 in0.0 mm 0.00 in0.0 mm
06:00 AM 24.3°F-4.3°C 15.3°F-9.3°C 68% 5.8 mph NE9.3 kmh NE 11.5 mph18.5 kmh 29.86 in1011.2 mb - 0.00 in0.0 mm 0.00 in0.0 mm
05:50 AM 24.4°F-4.2°C 15.3°F-9.3°C 68% 4.6 mph N7.4 kmh N 11.5 mph18.5 kmh 29.87 in1011.5 mb - 0.00 in0.0 mm 0.00 in0.0 mm
05:40 AM 24.4°F-4.2°C 15.0°F-9.4°C 67% 6.9 mph NNE11.1 kmh NNE 11.5 mph18.5 kmh 29.87 in1011.5 mb - 0.00 in0.0 mm 0.00 in0.0 mm
05:30 AM 24.5°F-4.2°C 15.4°F-9.2°C 68% 6.9 mph NNE11.1 kmh NNE 11.5 mph18.5 kmh 29.88 in1011.9 mb - 0.00 in0.0 mm 0.00 in0.0 mm
05:20 AM 24.6°F-4.1°C 15.2°F-9.3°C 67% 5.8 mph NNE9.3 kmh NNE 10.4 mph16.7 kmh 29.88 in1011.9 mb - 0.00 in0.0 mm 0.00 in0.0 mm
05:10 AM 24.7°F-4.1°C 15.3°F-9.3°C 67% 6.9 mph NE11.1 kmh NE 12.7 mph20.4 kmh 29.89 in1012.2 mb - 0.00 in0.0 mm 0.00 in0.0 mm
05:00 AM 24.9°F-3.9°C 15.5°F-9.2°C 67% 3.5 mph NNE5.6 kmh NNE 4.6 mph7.4 kmh 29.90 in1012.5 mb - 0.00 in0.0 mm 0.00 in0.0 mm
04:50 AM 25.0°F-3.9°C 15.6°F-9.1°C 67% 4.6 mph NNE7.4 kmh NNE 8.1 mph13.0 kmh 29.91 in1012.9 mb - 0.00 in0.0 mm 0.00 in0.0 mm
04:40 AM 25.2°F-3.8°C 15.8°F-9.0°C 67% 4.6 mph NE7.4 kmh NE 11.5 mph18.5 kmh 29.92 in1013.2 mb - 0.00 in0.0 mm 0.00 in0.0 mm
04:30 AM 25.3°F-3.7°C 15.9°F-8.9°C 67% 3.5 mph NNE5.6 kmh NNE 9.2 mph14.8 kmh 29.92 in1013.2 mb - 0.00 in0.0 mm 0.00 in0.0 mm
04:20 AM 25.5°F-3.6°C 16.1°F-8.8°C 67% 5.8 mph NNE9.3 kmh NNE 10.4 mph16.7 kmh 29.92 in1013.2 mb - 0.00 in0.0 mm 0.00 in0.0 mm
04:10 AM 25.5°F-3.6°C 15.7°F-9.1°C 66% 3.5 mph N5.6 kmh N 4.6 mph7.4 kmh 29.92 in1013.2 mb - 0.00 in0.0 mm 0.00 in0.0 mm
04:00 AM 25.6°F-3.6°C 15.8°F-9.0°C 66% 8.1 mph NE13.0 kmh NE 10.4 mph16.7 kmh 29.92 in1013.2 mb - 0.00 in0.0 mm 0.00 in0.0 mm
03:50 AM 25.7°F-3.5°C 15.9°F-8.9°C 66% 4.6 mph NNE7.4 kmh NNE 8.1 mph13.0 kmh 29.93 in1013.5 mb - 0.00 in0.0 mm 0.00 in0.0 mm
03:40 AM 25.7°F-3.5°C 15.9°F-8.9°C 66% 1.2 mph NNE1.9 kmh NNE 8.1 mph13.0 kmh 29.93 in1013.5 mb - 0.00 in0.0 mm 0.00 in0.0 mm
03:30 AM 25.8°F-3.4°C 16.0°F-8.9°C 66% 4.6 mph NE7.4 kmh NE 6.9 mph11.1 kmh 29.91 in1012.9 mb - 0.00 in0.0 mm 0.00 in0.0 mm
03:20 AM 26.0°F-3.3°C 16.2°F-8.8°C 66% 4.6 mph NE7.4 kmh NE 11.5 mph18.5 kmh 29.91 in1012.9 mb - 0.00 in0.0 mm 0.00 in0.0 mm
03:10 AM 26.1°F-3.3°C 16.3°F-8.7°C 66% 3.5 mph NE5.6 kmh NE 6.9 mph11.1 kmh 29.90 in1012.5 mb - 0.00 in0.0 mm 0.00 in0.0 mm
03:00 AM 26.3°F-3.2°C 16.4°F-8.7°C 66% 5.8 mph NNE9.3 kmh NNE 8.1 mph13.0 kmh 29.90 in1012.5 mb - 0.00 in0.0 mm 0.00 in0.0 mm
02:50 AM 26.5°F-3.1°C 16.7°F-8.5°C 66% 6.9 mph NNE11.1 kmh NNE 9.2 mph14.8 kmh 29.89 in1012.2 mb - 0.00 in0.0 mm 0.00 in0.0 mm
02:40 AM 26.7°F-2.9°C 16.9°F-8.4°C 66% 1.2 mph NE1.9 kmh NE 8.1 mph13.0 kmh 29.89 in1012.2 mb - 0.00 in0.0 mm 0.00 in0.0 mm
02:30 AM 26.8°F-2.9°C 16.9°F-8.4°C 66% 3.5 mph NNE5.6 kmh NNE 11.5 mph18.5 kmh 29.89 in1012.2 mb - 0.00 in0.0 mm 0.00 in0.0 mm
02:20 AM 26.9°F-2.8°C 16.7°F-8.5°C 65% 5.8 mph NNE9.3 kmh NNE 10.4 mph16.7 kmh 29.89 in1012.2 mb - 0.00 in0.0 mm 0.00 in0.0 mm
02:10 AM 27.1°F-2.7°C 16.9°F-8.4°C 65% 2.3 mph NNE3.7 kmh NNE 3.5 mph5.6 kmh 29.89 in1012.2 mb - 0.00 in0.0 mm 0.00 in0.0 mm
02:00 AM 27.2°F-2.7°C 17.0°F-8.3°C 65% 8.1 mph NNE13.0 kmh NNE 10.4 mph16.7 kmh 29.90 in1012.5 mb - 0.00 in0.0 mm 0.00 in0.0 mm
01:50 AM 27.4°F-2.6°C 17.5°F-8.1°C 66% 4.6 mph NNE7.4 kmh NNE 5.8 mph9.3 kmh 29.90 in1012.5 mb - 0.00 in0.0 mm 0.00 in0.0 mm
01:40 AM 27.5°F-2.5°C 17.6°F-8.0°C 66% 5.8 mph NE9.3 kmh NE 12.7 mph20.4 kmh 29.91 in1012.9 mb - 0.00 in0.0 mm 0.00 in0.0 mm
01:30 AM 27.6°F-2.4°C 17.4°F-8.1°C 65% 5.8 mph NNE9.3 kmh NNE 8.1 mph13.0 kmh 29.91 in1012.9 mb - 0.00 in0.0 mm 0.00 in0.0 mm
01:20 AM 27.7°F-2.4°C 17.5°F-8.1°C 65% 6.9 mph NE11.1 kmh NE 12.7 mph20.4 kmh 29.92 in1013.2 mb - 0.00 in0.0 mm 0.00 in0.0 mm
01:10 AM 27.8°F-2.3°C 17.6°F-8.0°C 65% 4.6 mph NE7.4 kmh NE 11.5 mph18.5 kmh 29.92 in1013.2 mb - 0.00 in0.0 mm 0.00 in0.0 mm
01:00 AM 27.9°F-2.3°C 17.6°F-8.0°C 65% 6.9 mph NE11.1 kmh NE 11.5 mph18.5 kmh 29.93 in1013.5 mb - 0.00 in0.0 mm 0.00 in0.0 mm
12:50 AM 28.0°F-2.2°C 18.1°F-7.7°C 66% 5.8 mph NE9.3 kmh NE 9.2 mph14.8 kmh 29.93 in1013.5 mb - 0.00 in0.0 mm 0.00 in0.0 mm
12:40 AM 28.1°F-2.2°C 18.2°F-7.7°C 66% 3.5 mph NE5.6 kmh NE 11.5 mph18.5 kmh 29.92 in1013.2 mb - 0.00 in0.0 mm 0.00 in0.0 mm
12:30 AM 28.2°F-2.1°C 18.6°F-7.4°C 67% 4.6 mph NE7.4 kmh NE 5.8 mph9.3 kmh 29.93 in1013.5 mb - 0.00 in0.0 mm 0.00 in0.0 mm
12:20 AM 28.2°F-2.1°C 18.6°F-7.4°C 67% 8.1 mph NE13.0 kmh NE 11.5 mph18.5 kmh 29.93 in1013.5 mb - 0.00 in0.0 mm 0.00 in0.0 mm
12:10 AM 28.3°F-2.1°C 19.1°F-7.2°C 68% 6.9 mph NE11.1 kmh NE 11.5 mph18.5 kmh 29.94 in1013.9 mb - 0.00 in0.0 mm 0.00 in0.0 mm
12:00 AM 28.3°F-2.1°C 19.1°F-7.2°C 68% 5.8 mph NE9.3 kmh NE 10.4 mph16.7 kmh 29.94 in1013.9 mb - 0.00 in0.0 mm 0.00 in0.0 mm